createdAt,value
2022-07-26T00:00:40.856Z,64.71
2022-07-26T00:03:22.037Z,65.06
2022-07-26T00:06:10.765Z,65.05
2022-07-26T00:08:53.057Z,64.76
2022-07-26T00:11:40.926Z,64.83
2022-07-26T00:14:24.028Z,64.90
2022-07-26T00:17:12.758Z,64.67
2022-07-26T00:19:53.967Z,64.77
2022-07-26T00:22:41.803Z,64.71
2022-07-26T00:25:22.971Z,64.77
2022-07-26T00:28:10.739Z,64.66
2022-07-26T00:30:54.958Z,64.83
2022-07-26T00:33:43.790Z,65.07
2022-07-26T00:36:27.626Z,65.30
2022-07-26T00:39:15.840Z,65.19
2022-07-26T00:41:56.955Z,65.47
2022-07-26T00:44:45.710Z,65.57
2022-07-26T00:47:35.720Z,65.57
2022-07-26T00:50:25.955Z,65.59
2022-07-26T00:53:07.701Z,65.90
2022-07-26T00:55:56.850Z,65.99
2022-07-26T00:58:37.923Z,65.79
2022-07-26T01:01:25.767Z,65.75
2022-07-26T01:04:09.338Z,65.89
2022-07-26T01:06:58.670Z,66.01
2022-07-26T01:09:46.680Z,66.17
2022-07-26T01:12:34.892Z,66.01
2022-07-26T01:15:18.697Z,66.19
2022-07-26T01:18:06.903Z,66.06
2022-07-26T01:20:51.669Z,65.97
2022-07-26T01:23:41.649Z,65.81
2022-07-26T01:26:29.638Z,66.18
2022-07-26T01:29:18.666Z,66.23
2022-07-26T01:32:01.436Z,66.30
2022-07-26T01:34:50.678Z,65.90
2022-07-26T01:37:31.892Z,66.30
2022-07-26T01:40:21.655Z,66.17
2022-07-26T01:43:02.863Z,66.28
2022-07-26T01:45:50.657Z,66.13
2022-07-26T01:48:32.002Z,66.59
2022-07-26T01:51:19.624Z,66.14
2022-07-26T01:54:07.827Z,66.31
2022-07-26T01:56:50.882Z,66.01
2022-07-26T01:59:38.609Z,66.12
2022-07-26T02:02:26.943Z,66.09
2022-07-26T02:05:08.603Z,66.29
2022-07-26T02:07:57.625Z,66.22
2022-07-26T02:10:57.628Z,66.31
2022-07-26T02:13:53.051Z,66.22
2022-07-26T02:16:41.799Z,66.07
2022-07-26T02:19:23.728Z,66.20
2022-07-26T02:22:11.827Z,65.84
2022-07-26T02:24:53.563Z,66.29
2022-07-26T02:27:42.590Z,66.16
2022-07-26T02:30:32.572Z,66.29
2022-07-26T02:33:16.012Z,66.05
2022-07-26T02:36:03.567Z,66.41
2022-07-26T02:38:51.793Z,66.07
2022-07-26T02:41:35.584Z,66.34
2022-07-26T02:44:17.467Z,66.10
2022-07-26T02:47:07.549Z,66.07
2022-07-26T02:49:49.367Z,66.15
2022-07-26T02:52:37.559Z,66.08
2022-07-26T02:55:27.534Z,66.06
2022-07-26T02:58:09.763Z,65.81
2022-07-26T03:00:58.547Z,65.95
2022-07-26T03:03:43.119Z,65.17
2022-07-26T03:06:32.528Z,65.50
2022-07-26T03:09:20.544Z,66.10
2022-07-26T03:12:09.503Z,66.12
2022-07-26T03:14:59.516Z,66.25
2022-07-26T03:17:47.759Z,66.36
2022-07-26T03:20:30.517Z,66.57
2022-07-26T03:23:12.600Z,66.48
2022-07-26T03:26:00.533Z,66.64
2022-07-26T03:28:48.729Z,66.72
2022-07-26T03:31:32.550Z,66.89
2022-07-26T03:34:20.715Z,66.68
2022-07-26T03:37:03.458Z,66.91
2022-07-26T03:39:45.340Z,66.62
2022-07-26T03:42:33.461Z,67.07
2022-07-26T03:45:15.730Z,67.03
2022-07-26T03:48:03.462Z,67.29
2022-07-26T03:50:45.294Z,67.05
2022-07-26T03:53:35.486Z,67.01
2022-07-26T03:56:42.574Z,67.01
2022-07-26T03:59:25.679Z,67.15
2022-07-26T04:02:14.517Z,67.19
2022-07-26T04:05:03.434Z,67.29
2022-07-26T04:07:53.163Z,67.49
2022-07-26T04:10:43.435Z,67.20
2022-07-26T04:13:31.680Z,67.49
2022-07-26T04:16:14.398Z,67.42
2022-07-26T04:19:03.133Z,67.19
2022-07-26T04:21:43.411Z,67.68
2022-07-26T04:24:25.559Z,67.44
2022-07-26T04:27:15.407Z,67.62
2022-07-26T04:30:03.658Z,67.60
2022-07-26T04:32:46.757Z,67.87
2022-07-26T04:35:34.626Z,67.64
2022-07-26T04:38:15.381Z,67.61
2022-07-26T04:40:59.122Z,67.56
2022-07-26T04:43:49.386Z,67.95
2022-07-26T04:46:37.658Z,68.09
2022-07-26T04:49:19.462Z,68.07
2022-07-26T04:52:07.362Z,68.05
2022-07-26T04:54:55.344Z,68.13
2022-07-26T04:57:44.371Z,68.21
2022-07-26T05:00:56.846Z,68.22
2022-07-26T05:03:39.922Z,68.41
2022-07-26T05:06:29.324Z,68.50
2022-07-26T05:09:17.345Z,68.30
2022-07-26T05:12:05.390Z,68.40
2022-07-26T05:14:53.322Z,68.21
2022-07-26T05:17:52.304Z,68.25
2022-07-26T05:20:41.360Z,68.21
2022-07-26T05:23:22.647Z,68.29
2022-07-26T05:26:11.330Z,68.27
2022-07-26T05:28:52.566Z,68.28
2022-07-26T05:31:40.315Z,68.16
2022-07-26T05:34:25.040Z,68.57
2022-07-26T05:37:13.420Z,68.46
2022-07-26T05:39:54.517Z,68.38
2022-07-26T05:42:42.306Z,68.47
2022-07-26T05:45:23.535Z,68.45
2022-07-26T05:48:12.285Z,68.43
2022-07-26T05:51:02.283Z,68.25
2022-07-26T05:53:50.490Z,67.75
2022-07-26T05:56:32.283Z,67.48
2022-07-26T05:59:20.495Z,67.24
2022-07-26T06:02:03.403Z,66.98
2022-07-26T06:04:47.423Z,66.81
2022-07-26T06:07:37.274Z,65.86
2022-07-26T06:10:25.471Z,66.01
2022-07-26T06:13:07.231Z,66.33
2022-07-26T06:15:56.256Z,66.07
2022-07-26T06:18:44.439Z,65.93
2022-07-26T06:21:25.270Z,66.12
2022-07-26T06:24:15.454Z,65.79
2022-07-26T06:27:05.162Z,65.86
2022-07-26T06:29:55.296Z,64.73
2022-07-26T06:32:37.643Z,64.95
2022-07-26T06:35:26.211Z,64.75
2022-07-26T06:38:14.202Z,64.48
2022-07-26T06:41:04.232Z,64.26
2022-07-26T06:43:45.410Z,63.41
2022-07-26T06:46:33.209Z,62.87
2022-07-26T06:49:23.007Z,62.44
2022-07-26T06:52:12.311Z,61.98
2022-07-26T06:54:53.413Z,61.87
2022-07-26T06:57:44.805Z,61.12
2022-07-26T07:00:30.769Z,60.22
2022-07-26T07:03:18.190Z,59.96
2022-07-26T07:06:06.178Z,59.23
2022-07-26T07:08:56.167Z,57.35
2022-07-26T07:11:44.175Z,56.93
2022-07-26T07:14:33.395Z,51.83
2022-07-26T07:17:33.370Z,48.58
2022-07-26T07:20:15.009Z,47.85
2022-07-26T07:23:03.172Z,47.98
2022-07-26T07:25:45.236Z,45.75
2022-07-26T07:28:36.156Z,46.90
2022-07-26T07:31:30.287Z,47.00
2022-07-26T07:34:11.681Z,47.20
2022-07-26T07:37:01.126Z,48.18
2022-07-26T07:39:44.411Z,49.62
2022-07-26T07:42:38.133Z,50.09
2022-07-26T07:45:26.140Z,51.54
2022-07-26T07:48:16.142Z,51.99
2022-07-26T07:50:57.323Z,51.90
2022-07-26T07:53:56.388Z,51.37
2022-07-26T07:56:45.113Z,50.31
2022-07-26T07:59:39.177Z,49.56
2022-07-26T08:02:27.111Z,49.92
2022-07-26T08:05:14.281Z,51.00
2022-07-26T08:08:03.095Z,51.18
2022-07-26T08:10:49.070Z,46.90
2022-07-26T08:13:45.778Z,44.99
2022-07-26T08:16:36.351Z,45.48
2022-07-26T08:19:18.079Z,46.03
2022-07-26T08:22:11.112Z,44.28
2022-07-26T08:24:52.541Z,41.29
2022-07-26T08:27:41.087Z,38.39
2022-07-26T08:30:22.309Z,37.04
2022-07-26T08:33:10.101Z,34.52
2022-07-26T08:35:53.953Z,35.71
2022-07-26T08:38:47.510Z,35.93
2022-07-26T08:41:29.260Z,35.42
2022-07-26T08:44:19.072Z,33.29
2022-07-26T08:47:00.631Z,32.65
2022-07-26T08:49:49.043Z,31.94
2022-07-26T08:52:30.295Z,32.55
2022-07-26T08:55:24.022Z,32.91
2022-07-26T08:58:13.241Z,33.03
2022-07-26T09:01:15.307Z,33.74
2022-07-26T09:03:56.314Z,33.27
2022-07-26T09:06:44.390Z,36.19
2022-07-26T09:09:25.271Z,37.70
2022-07-26T09:12:33.046Z,39.74
2022-07-26T09:15:25.486Z,40.78
2022-07-26T09:18:13.005Z,40.59
2022-07-26T09:21:01.995Z,40.75
2022-07-26T09:23:50.036Z,40.28
2022-07-26T09:26:38.097Z,39.62
2022-07-26T09:29:28.519Z,39.21
2022-07-26T09:32:23.985Z,38.91
2022-07-26T09:38:24.269Z,36.31
2022-07-26T09:41:24.962Z,33.04
2022-07-26T09:44:14.972Z,33.24
2022-07-26T09:47:05.965Z,33.97
2022-07-26T09:49:54.018Z,33.82
2022-07-26T09:52:41.937Z,34.43
2022-07-26T09:55:39.298Z,34.77
2022-07-26T09:58:26.037Z,34.28
2022-07-26T10:01:13.954Z,32.94
2022-07-26T10:04:03.956Z,32.36
2022-07-26T10:06:52.943Z,33.61
2022-07-26T10:09:48.948Z,33.88
2022-07-26T10:12:35.442Z,35.71
2022-07-26T10:15:41.952Z,35.21
2022-07-26T10:18:52.142Z,35.55
2022-07-26T10:21:36.951Z,35.50
2022-07-26T10:24:34.742Z,36.60
2022-07-26T10:27:16.916Z,36.15
2022-07-26T10:30:35.155Z,36.56
2022-07-26T10:33:29.895Z,36.09
2022-07-26T10:36:29.907Z,35.29
2022-07-26T10:39:25.886Z,36.07
2022-07-26T10:42:15.896Z,35.89
2022-07-26T10:44:57.115Z,36.54
2022-07-26T10:47:45.899Z,36.54
2022-07-26T10:50:47.882Z,36.69
2022-07-26T10:53:36.119Z,37.76
2022-07-26T10:56:18.866Z,37.86
2022-07-26T10:59:06.866Z,38.53
2022-07-26T11:01:51.518Z,39.30
2022-07-26T11:04:38.861Z,38.80
2022-07-26T11:07:26.871Z,39.49
2022-07-26T11:10:16.100Z,40.30
2022-07-26T11:13:20.876Z,41.07
2022-07-26T11:16:13.376Z,41.58
2022-07-26T11:19:00.857Z,42.00
2022-07-26T11:21:42.438Z,41.53
2022-07-26T11:24:30.850Z,41.58
2022-07-26T11:27:13.137Z,40.99
2022-07-26T11:30:02.822Z,40.50
2022-07-26T11:32:50.858Z,40.86
2022-07-26T11:35:38.834Z,39.54
2022-07-26T11:38:26.924Z,39.24
2022-07-26T11:41:08.665Z,38.71
2022-07-26T11:44:01.896Z,36.04
2022-07-26T11:46:47.836Z,34.92
2022-07-26T11:50:00.233Z,34.08
2022-07-26T11:52:49.049Z,32.70
2022-07-26T11:55:34.824Z,32.70
2022-07-26T11:58:22.997Z,33.85
2022-07-26T12:01:04.805Z,35.04
2022-07-26T12:03:56.108Z,36.29
2022-07-26T12:06:36.789Z,36.95
2022-07-26T12:09:41.791Z,37.62
2022-07-26T12:12:29.038Z,37.96
2022-07-26T12:15:17.761Z,37.70
2022-07-26T12:18:13.822Z,38.58
2022-07-26T12:21:08.844Z,37.33
2022-07-26T12:23:51.870Z,37.60
2022-07-26T12:26:40.351Z,38.03
2022-07-26T12:29:33.759Z,38.43
2022-07-26T12:32:23.771Z,37.79
2022-07-26T12:35:09.015Z,37.64
2022-07-26T12:37:59.748Z,37.23
2022-07-26T12:40:48.984Z,36.12
2022-07-26T12:43:49.211Z,35.94
2022-07-26T12:46:31.334Z,36.19
2022-07-26T12:49:18.765Z,37.51
2022-07-26T12:51:59.977Z,38.89
2022-07-26T12:54:51.719Z,38.62
2022-07-26T12:57:33.200Z,38.22
2022-07-26T13:00:25.780Z,38.87
2022-07-26T13:03:07.975Z,38.00
2022-07-26T13:05:55.717Z,37.52
2022-07-26T13:08:43.701Z,37.44
2022-07-26T13:11:26.971Z,37.24
2022-07-26T13:14:15.694Z,37.59
2022-07-26T13:16:56.727Z,38.31
2022-07-26T13:19:52.688Z,39.23
2022-07-26T13:22:34.479Z,39.71
2022-07-26T13:25:22.715Z,39.58
2022-07-26T13:28:15.882Z,38.73
2022-07-26T13:30:56.819Z,38.73
2022-07-26T13:33:44.928Z,38.06
2022-07-26T13:36:25.691Z,37.69
2022-07-26T13:39:13.907Z,37.36
2022-07-26T13:41:55.680Z,35.98
2022-07-26T13:44:51.677Z,35.59
2022-07-26T13:47:39.648Z,35.12
2022-07-26T13:50:27.827Z,34.72
2022-07-26T13:53:16.338Z,33.45
2022-07-26T13:55:56.655Z,33.63
2022-07-26T13:58:38.449Z,33.89
2022-07-26T14:01:43.450Z,33.83
2022-07-26T14:04:33.701Z,34.75
2022-07-26T14:07:14.948Z,35.27
2022-07-26T14:10:02.650Z,35.70
2022-07-26T14:12:43.859Z,36.20
2022-07-26T14:15:31.822Z,36.24
2022-07-26T14:18:27.601Z,36.95
2022-07-26T14:21:15.587Z,36.77
2022-07-26T14:24:04.616Z,37.56
2022-07-26T14:26:56.897Z,37.59
2022-07-26T14:29:47.602Z,38.43
2022-07-26T14:32:35.584Z,37.73
2022-07-26T14:35:25.616Z,37.43
2022-07-26T14:38:06.803Z,37.85
2022-07-26T14:40:55.570Z,37.77
2022-07-26T14:43:36.817Z,37.44
2022-07-26T14:46:26.656Z,37.18
2022-07-26T14:49:14.640Z,38.27
2022-07-26T14:52:04.666Z,38.50
2022-07-26T14:54:46.331Z,38.48
2022-07-26T14:57:38.205Z,38.56
2022-07-26T15:00:22.766Z,38.56
2022-07-26T15:03:10.562Z,38.74
2022-07-26T15:05:52.251Z,39.19
2022-07-26T15:08:41.551Z,39.31
2022-07-26T15:11:29.556Z,39.00
2022-07-26T15:14:17.772Z,38.21
2022-07-26T15:17:20.572Z,38.46
2022-07-26T15:20:03.521Z,38.90
2022-07-26T15:22:51.563Z,39.64
2022-07-26T15:25:41.058Z,39.43
2022-07-26T15:28:22.551Z,40.08
2022-07-26T15:31:10.732Z,39.99
2022-07-26T15:33:51.541Z,40.01
2022-07-26T15:36:40.519Z,40.21
2022-07-26T15:39:21.727Z,39.02
2022-07-26T15:42:14.717Z,39.90
2022-07-26T15:44:56.754Z,40.06
2022-07-26T15:47:55.171Z,40.48
2022-07-26T15:50:46.491Z,40.62
2022-07-26T15:53:46.267Z,41.00
2022-07-26T15:56:34.490Z,40.87
2022-07-26T15:59:17.733Z,40.55
2022-07-26T16:02:06.550Z,41.36
2022-07-26T16:04:48.705Z,41.89
2022-07-26T16:07:37.493Z,42.08
2022-07-26T16:10:26.471Z,41.80
2022-07-26T16:13:14.755Z,41.96
2022-07-26T16:15:57.695Z,42.82
2022-07-26T16:18:52.429Z,43.60
2022-07-26T16:21:40.489Z,43.95
2022-07-26T16:24:21.664Z,44.36
2022-07-26T16:27:09.492Z,44.80
2022-07-26T16:29:52.476Z,44.75
2022-07-26T16:32:42.472Z,44.32
2022-07-26T16:35:30.441Z,44.45
2022-07-26T16:38:12.388Z,44.98
2022-07-26T16:41:00.445Z,45.59
2022-07-26T16:43:49.481Z,45.05
2022-07-26T16:46:31.065Z,45.42
2022-07-26T16:49:20.558Z,45.75
2022-07-26T16:52:01.636Z,46.24
2022-07-26T16:54:49.530Z,46.11
2022-07-26T16:57:30.608Z,46.61
2022-07-26T17:00:22.393Z,46.88
2022-07-26T17:03:10.369Z,46.65
2022-07-26T17:06:05.833Z,46.59
2022-07-26T17:08:48.070Z,46.86
2022-07-26T17:11:35.466Z,47.06
2022-07-26T17:14:17.914Z,46.67
2022-07-26T17:17:05.373Z,46.89
2022-07-26T17:19:53.949Z,46.55
2022-07-26T17:22:36.419Z,46.97
2022-07-26T17:25:24.369Z,46.51
2022-07-26T17:28:12.457Z,46.62
2022-07-26T17:30:54.103Z,46.92
2022-07-26T17:33:41.391Z,46.84
2022-07-26T17:36:31.354Z,46.34
2022-07-26T17:39:15.801Z,46.88
2022-07-26T17:42:04.331Z,46.67
2022-07-26T17:44:45.918Z,46.60
2022-07-26T17:47:34.325Z,47.10
2022-07-26T17:53:34.527Z,48.38
2022-07-26T17:56:25.309Z,48.08
2022-07-26T17:59:14.227Z,48.68
2022-07-26T18:01:56.344Z,48.55
2022-07-26T18:04:44.509Z,49.14
2022-07-26T18:07:26.290Z,49.64
2022-07-26T18:10:15.553Z,50.00
2022-07-26T18:12:58.363Z,50.31
2022-07-26T18:15:40.074Z,50.38
2022-07-26T18:18:28.633Z,50.28
2022-07-26T18:21:23.412Z,50.15
2022-07-26T18:24:17.245Z,49.88
2022-07-26T18:26:59.088Z,49.96
2022-07-26T18:29:49.370Z,49.90
2022-07-26T18:32:31.500Z,49.86
2022-07-26T18:35:19.238Z,50.02
2022-07-26T18:38:01.936Z,50.06
2022-07-26T18:40:49.254Z,50.58
2022-07-26T18:43:30.481Z,51.56
2022-07-26T18:46:20.397Z,52.07
2022-07-26T18:49:08.581Z,52.68
2022-07-26T18:52:08.387Z,52.77
2022-07-26T18:54:50.218Z,52.92
2022-07-26T18:57:39.449Z,52.87
2022-07-26T19:00:23.417Z,52.77
2022-07-26T19:03:14.957Z,51.52
2022-07-26T19:05:56.200Z,50.70
2022-07-26T19:08:44.471Z,50.26
2022-07-26T19:11:25.207Z,50.02
2022-07-26T19:14:13.413Z,49.76
2022-07-26T19:16:55.264Z,49.52
2022-07-26T19:19:52.280Z,49.69
2022-07-26T19:22:40.254Z,49.81
2022-07-26T19:25:21.431Z,50.22
2022-07-26T19:28:09.371Z,50.20
2022-07-26T19:30:50.504Z,50.54
2022-07-26T19:33:38.181Z,50.64
2022-07-26T19:36:25.591Z,51.02
2022-07-26T19:39:14.578Z,51.48
2022-07-26T19:42:02.177Z,51.96
2022-07-26T19:44:50.247Z,52.13
2022-07-26T19:47:31.397Z,52.78
2022-07-26T19:50:19.154Z,53.08
2022-07-26T19:53:09.147Z,53.86
2022-07-26T19:55:57.150Z,54.07
2022-07-26T19:58:38.362Z,55.13
2022-07-26T20:01:29.381Z,55.23
2022-07-26T20:04:17.210Z,55.79
2022-07-26T20:07:05.151Z,56.10
2022-07-26T20:09:48.505Z,56.74
2022-07-26T20:12:36.523Z,56.80
2022-07-26T20:15:19.654Z,57.18
2022-07-26T20:18:14.124Z,57.49
2022-07-26T20:21:03.249Z,57.97
2022-07-26T20:23:44.463Z,58.41
2022-07-26T20:26:34.110Z,58.49
2022-07-26T20:29:15.612Z,59.18
2022-07-26T20:32:03.090Z,59.33
2022-07-26T20:34:44.327Z,59.44
2022-07-26T20:37:32.084Z,59.46
2022-07-26T20:40:15.587Z,59.66
2022-07-26T20:43:08.140Z,59.61
2022-07-26T20:45:56.143Z,60.01
2022-07-26T20:48:44.115Z,60.09
2022-07-26T20:51:25.467Z,60.35
2022-07-26T20:54:14.082Z,60.32
2022-07-26T20:56:55.302Z,60.60
2022-07-26T20:59:45.094Z,60.54
2022-07-26T21:02:33.139Z,60.60
2022-07-26T21:05:15.037Z,60.53
2022-07-26T21:08:03.068Z,60.50
2022-07-26T21:10:46.072Z,60.64
2022-07-26T21:13:34.137Z,60.77
2022-07-26T21:16:25.096Z,61.03
2022-07-26T21:19:20.041Z,61.01
2022-07-26T21:22:08.167Z,61.20
2022-07-26T21:24:50.245Z,61.45
2022-07-26T21:27:38.042Z,61.58
2022-07-26T21:30:20.246Z,61.32
2022-07-26T21:33:10.028Z,61.34
2022-07-26T21:35:51.222Z,61.55
2022-07-26T21:38:41.244Z,61.40
2022-07-26T21:41:29.010Z,61.61
2022-07-26T21:44:18.072Z,61.66
2022-07-26T21:47:06.002Z,61.66
2022-07-26T21:49:49.198Z,61.52
2022-07-26T21:52:36.991Z,62.05
2022-07-26T21:55:24.973Z,62.18
2022-07-26T21:58:12.990Z,62.16
2022-07-26T22:01:06.550Z,62.11
2022-07-26T22:03:49.956Z,62.05
2022-07-26T22:06:39.334Z,62.06
2022-07-26T22:09:19.973Z,62.08
2022-07-26T22:12:01.710Z,61.72
2022-07-26T22:14:49.937Z,62.05
2022-07-26T22:17:39.658Z,62.04
2022-07-26T22:20:26.929Z,62.19
2022-07-26T22:23:19.932Z,62.44
2022-07-26T22:26:09.938Z,62.63
2022-07-26T22:28:51.145Z,62.52
2022-07-26T22:31:39.015Z,62.40
2022-07-26T22:34:20.143Z,62.16
2022-07-26T22:37:07.931Z,62.20
2022-07-26T22:39:58.046Z,62.53
2022-07-26T22:42:47.134Z,62.60
2022-07-26T22:45:29.055Z,62.94
2022-07-26T22:48:17.124Z,62.89
2022-07-26T22:50:58.902Z,63.11
2022-07-26T22:53:46.907Z,62.92
2022-07-26T22:56:38.932Z,62.86
2022-07-26T22:59:21.813Z,62.78
2022-07-26T23:02:09.971Z,62.81
2022-07-26T23:04:52.045Z,62.97
2022-07-26T23:07:40.949Z,63.20
2022-07-26T23:10:24.851Z,63.10
2022-07-26T23:13:14.855Z,63.19
2022-07-26T23:16:09.942Z,63.37
2022-07-26T23:19:04.844Z,63.41
2022-07-26T23:21:52.837Z,63.29
2022-07-26T23:24:40.849Z,63.24
2022-07-26T23:27:24.626Z,63.22
2022-07-26T23:30:14.851Z,63.40
2022-07-26T23:33:03.104Z,63.52
2022-07-26T23:35:43.860Z,63.74
2022-07-26T23:38:32.053Z,63.63
2022-07-26T23:41:12.813Z,63.79
2022-07-26T23:44:01.829Z,63.66
2022-07-26T23:46:45.078Z,64.08
2022-07-26T23:49:32.994Z,63.64
2022-07-26T23:52:20.808Z,63.83
2022-07-26T23:55:09.026Z,64.02
2022-07-26T23:57:49.813Z,64.53
